Time;durP1;ratioP1;P1;durP2;ratioP2;P2;SDS_P1;SDS_P2;PMS_P1;PMS_P2;Temp;Humidity;BMP_temperature;BMP_pressure;BME280_temperature;BME280_humidity;BME280_pressure;Samples;Min_cycle;Max_cycle;Signal;HPM_P1;HPM_P2
2023/12/16 00:01:28;;;;;;;;;;;;;;;;;;5007463;28;19913;-48
2023/12/16 00:03:54;;;;;;;;;;;;;;;;;;5013678;28;20302;-48
2023/12/16 00:06:20;;;;;;;;;;;;;;;;;;5014364;28;19968;-48
2023/12/16 00:08:46;;;;;;;;;;;;;;;;;;5014288;28;19910;-47
2023/12/16 00:11:13;;;;;;;;;;;;;;;;;;5014271;28;19913;-48
2023/12/16 00:13:39;;;;;;;;;;;;;;;;;;5012695;28;20340;-49
2023/12/16 00:16:05;;;;;;;;;;;;;;;;;;5003660;28;19976;-49
2023/12/16 00:18:31;;;;;;;;;;;;;;;;;;5014197;28;19916;-50
2023/12/16 00:20:57;;;;;;;;;;;;;;;;;;5013477;28;20012;-50
2023/12/16 00:23:23;;;;;;;;;;;;;;;;;;4994587;28;20496;-49
2023/12/16 00:25:49;;;;;;;;;;;;;;;;;;4998710;28;19914;-50
2023/12/16 00:28:15;;;;;;;;;;;;;;;;;;4995011;28;20317;-51
2023/12/16 00:30:41;;;;;;;;;;;;;;;;;;4999070;28;19921;-51
2023/12/16 00:33:07;;;;;;;;;;;;;;;;;;4982750;28;19932;-53
2023/12/16 00:35:33;;;;;;;;;;;;;;;;;;4989427;28;20344;-51
2023/12/16 00:37:59;;;;;;;;;;;;;;;;;;4996321;28;19917;-51
2023/12/16 00:40:25;;;;;;;;;;;;;;;;;;4996365;28;20004;-52
2023/12/16 00:42:51;;;;;;;;;;;;;;;;;;5011872;28;20321;-50
2023/12/16 00:45:17;;;;;;;;;;;;;;;;;;5010995;28;19914;-53
2023/12/16 00:47:43;;;;;;;;;;;;;;;;;;5003830;28;19913;-52
2023/12/16 00:50:10;;;;;;;;;;;;;;;;;;5013332;28;19917;-51
2023/12/16 00:52:36;;;;;;;;;;;;;;;;;;5013261;28;20294;-50
2023/12/16 00:55:03;;;;;;;;;;;;;;;;;;5006021;28;20287;-50
2023/12/16 00:57:29;;;;;;;;;;;;;;;;;;4976849;28;20368;-51
2023/12/16 00:59:55;;;;;;;;;;;;;;;;;;5010409;28;20293;-50
2023/12/16 01:02:21;;;;;;;;;;;;;;;;;;4982071;28;19924;-48
2023/12/16 01:04:47;;;;;;;;;;;;;;;;;;5008693;28;19921;-47
2023/12/16 01:07:13;;;;;;;;;;;;;;;;;;5013244;28;19909;-51
2023/12/16 01:09:39;;;;;;;;;;;;;;;;;;5013341;28;20021;-50
2023/12/16 01:12:05;;;;;;;;;;;;;;;;;;5012339;28;19934;-48
2023/12/16 01:14:31;;;;;;;;;;;;;;;;;;5000288;28;19951;-48
2023/12/16 01:16:58;;;;;;;;;;;;;;;;;;4997780;28;19913;-48
2023/12/16 01:19:24;;;;;;;;;;;;;;;;;;4993399;28;19914;-50
2023/12/16 01:21:50;;;;;;;;;;;;;;;;;;4983783;28;20373;-53
2023/12/16 01:24:16;;;;;;;;;;;;;;;;;;5012787;28;19959;-53
2023/12/16 01:26:42;;;;;;;;;;;;;;;;;;5008857;28;19961;-51
2023/12/16 01:29:08;;;;;;;;;;;;;;;;;;4993603;28;19920;-50
2023/12/16 01:31:35;;;;;;;;;;;;;;;;;;5007905;28;20017;-52
2023/12/16 01:34:01;;;;;;;;;;;;;;;;;;5012756;28;20274;-48
2023/12/16 01:36:27;;;;;;;;;;;;;;;;;;5013340;28;19910;-48
2023/12/16 01:38:53;;;;;;;;;;;;;;;;;;4994862;28;20008;-48
2023/12/16 01:41:19;;;;;;;;;;;;;;;;;;4998476;28;19957;-51
2023/12/16 01:43:45;;;;;;;;;;;;;;;;;;4975455;28;19917;-52
2023/12/16 01:46:11;;;;;;;;;;;;;;;;;;4976665;28;19910;-48
2023/12/16 01:48:40;;;;;;;;;;;;;;;;;;4992973;28;19960;-48
2023/12/16 01:51:06;;;;;;;;;;;;;;;;;;4984357;28;20378;-49
2023/12/16 01:53:32;;;;;;;;;;;;;;;;;;4992811;28;19918;-49
2023/12/16 01:55:58;;;;;;;;;;;;;;;;;;4975541;28;20045;-50
2023/12/16 01:58:24;;;;;;;;;;;;;;;;;;4975514;28;19913;-49
2023/12/16 02:00:51;;;;;;;;;;;;;;;;;;4996203;28;19910;-49
2023/12/16 02:03:17;;;;;;;;;;;;;;;;;;5012022;28;19948;-50
2023/12/16 02:05:43;;;;;;;;;;;;;;;;;;5012449;28;19936;-47
2023/12/16 02:08:09;;;;;;;;;;;;;;;;;;5012555;28;19920;-50
2023/12/16 02:10:35;;;;;;;;;;;;;;;;;;5012424;28;20000;-51
2023/12/16 02:13:01;;;;;;;;;;;;;;;;;;5012103;28;19913;-48
2023/12/16 02:15:27;;;;;;;;;;;;;;;;;;5012766;28;19910;-52
2023/12/16 02:17:53;;;;;;;;;;;;;;;;;;5012305;28;19957;-48
2023/12/16 02:20:19;;;;;;;;;;;;;;;;;;4995646;28;19910;-49
2023/12/16 02:22:45;;;;;;;;;;;;;;;;;;4976397;28;20469;-49
2023/12/16 02:25:11;;;;;;;;;;;;;;;;;;4996786;28;19960;-49
2023/12/16 02:27:37;;;;;;;;;;;;;;;;;;4996751;28;19925;-49
2023/12/16 02:30:03;;;;;;;;;;;;;;;;;;4996599;28;19910;-49
2023/12/16 02:32:29;;;;;;;;;;;;;;;;;;4978769;28;19924;-52
2023/12/16 02:34:55;;;;;;;;;;;;;;;;;;4996775;28;19925;-49
2023/12/16 02:37:21;;;;;;;;;;;;;;;;;;4978915;28;19933;-50
2023/12/16 02:39:47;;;;;;;;;;;;;;;;;;4978996;28;19910;-51
2023/12/16 02:42:14;;;;;;;;;;;;;;;;;;4996046;28;19973;-48
2023/12/16 02:44:40;;;;;;;;;;;;;;;;;;4996392;28;19910;-50
2023/12/16 02:47:07;;;;;;;;;;;;;;;;;;4996829;28;20350;-52
2023/12/16 02:49:33;;;;;;;;;;;;;;;;;;4996377;28;20389;-48
2023/12/16 02:51:59;;;;;;;;;;;;;;;;;;4996259;28;19914;-49
2023/12/16 02:54:25;;;;;;;;;;;;;;;;;;4995980;28;19910;-49
2023/12/16 02:56:52;;;;;;;;;;;;;;;;;;4995173;28;19964;-49
2023/12/16 02:59:18;;;;;;;;;;;;;;;;;;5015699;28;19910;-49
2023/12/16 03:01:44;;;;;;;;;;;;;;;;;;5014087;28;19913;-48
2023/12/16 03:04:10;;;;;;;;;;;;;;;;;;5015311;28;19956;-47
2023/12/16 03:06:36;;;;;;;;;;;;;;;;;;4982644;28;19924;-48
2023/12/16 03:09:02;;;;;;;;;;;;;;;;;;4996327;28;20008;-51
2023/12/16 03:11:28;;;;;;;;;;;;;;;;;;5003057;28;19940;-48
2023/12/16 03:13:54;;;;;;;;;;;;;;;;;;5015229;28;19956;-47
2023/12/16 03:16:20;;;;;;;;;;;;;;;;;;4991981;28;19914;-48
2023/12/16 03:18:47;;;;;;;;;;;;;;;;;;5002278;28;19918;-50
2023/12/16 03:21:13;;;;;;;;;;;;;;;;;;5000838;28;20051;-49
2023/12/16 03:23:39;;;;;;;;;;;;;;;;;;5015086;28;20016;-50
2023/12/16 03:26:05;;;;;;;;;;;;;;;;;;5013524;28;19921;-50
2023/12/16 03:28:31;;;;;;;;;;;;;;;;;;5015140;28;19909;-53
2023/12/16 03:30:57;;;;;;;;;;;;;;;;;;5010399;28;19960;-51
2023/12/16 03:33:23;;;;;;;;;;;;;;;;;;5012858;28;20011;-48
2023/12/16 03:35:49;;;;;;;;;;;;;;;;;;5014214;28;19920;-48
2023/12/16 03:38:15;;;;;;;;;;;;;;;;;;5015058;28;19909;-48
2023/12/16 03:40:41;;;;;;;;;;;;;;;;;;5013841;28;20017;-51
2023/12/16 03:43:07;;;;;;;;;;;;;;;;;;4994947;28;20008;-48
2023/12/16 03:45:33;;;;;;;;;;;;;;;;;;4999172;28;19921;-51
2023/12/16 03:47:59;;;;;;;;;;;;;;;;;;5014829;28;19909;-51
2023/12/16 03:50:25;;;;;;;;;;;;;;;;;;5011241;28;19922;-48
2023/12/16 03:52:51;;;;;;;;;;;;;;;;;;4979173;28;19913;-49
2023/12/16 03:55:17;;;;;;;;;;;;;;;;;;5007195;28;20413;-48
2023/12/16 03:57:43;;;;;;;;;;;;;;;;;;4994212;28;20399;-51
2023/12/16 04:00:09;;;;;;;;;;;;;;;;;;4994859;28;19939;-48
2023/12/16 04:02:38;;;;;;;;;;;;;;;;;;4996869;28;20394;-48
2023/12/16 04:05:04;;;;;;;;;;;;;;;;;;4994873;28;19915;-48
2023/12/16 04:07:30;;;;;;;;;;;;;;;;;;4995028;28;19910;-50
2023/12/16 04:09:56;;;;;;;;;;;;;;;;;;4994896;28;20004;-49
2023/12/16 04:12:22;;;;;;;;;;;;;;;;;;4994452;28;19918;-48
2023/12/16 04:14:48;;;;;;;;;;;;;;;;;;5004715;28;20418;-49
2023/12/16 04:17:15;;;;;;;;;;;;;;;;;;5011469;28;20385;-48
2023/12/16 04:19:41;;;;;;;;;;;;;;;;;;5010979;28;19914;-47
2023/12/16 04:22:07;;;;;;;;;;;;;;;;;;5014097;28;20370;-48
2023/12/16 04:24:33;;;;;;;;;;;;;;;;;;5009711;28;20394;-47
2023/12/16 04:26:59;;;;;;;;;;;;;;;;;;4984812;28;19961;-49
2023/12/16 04:29:25;;;;;;;;;;;;;;;;;;4994519;28;19920;-47
2023/12/16 04:31:51;;;;;;;;;;;;;;;;;;5050055;22;20021;-47
2023/12/16 04:34:17;;;;;;;;;;;;;;;;;;4995930;28;19926;-46
2023/12/16 04:36:43;;;;;;;;;;;;;;;;;;5009947;28;19972;-47
2023/12/16 04:39:09;;;;;;;;;;;;;;;;;;4994251;28;19961;-45
2023/12/16 04:41:35;;;;;;;;;;;;;;;;;;4999981;28;19909;-48
2023/12/16 04:44:01;;;;;;;;;;;;;;;;;;4990899;28;20029;-47
2023/12/16 04:46:27;;;;;;;;;;;;;;;;;;5004921;28;19954;-47
2023/12/16 04:48:54;;;;;;;;;;;;;;;;;;4996795;28;19921;-46
2023/12/16 04:51:20;;;;;;;;;;;;;;;;;;4993610;28;20000;-47
2023/12/16 04:53:46;;;;;;;;;;;;;;;;;;4993609;28;19925;-47
2023/12/16 04:56:12;;;;;;;;;;;;;;;;;;4993790;28;19921;-45
2023/12/16 04:58:38;;;;;;;;;;;;;;;;;;4993879;28;19968;-46
2023/12/16 05:01:04;;;;;;;;;;;;;;;;;;4993857;28;19910;-45
2023/12/16 05:03:30;;;;;;;;;;;;;;;;;;4992219;28;19969;-47
2023/12/16 05:05:56;;;;;;;;;;;;;;;;;;4993798;28;19996;-47
2023/12/16 05:08:22;;;;;;;;;;;;;;;;;;4993630;28;19913;-47
2023/12/16 05:10:48;;;;;;;;;;;;;;;;;;4993597;28;19989;-45
2023/12/16 05:13:15;;;;;;;;;;;;;;;;;;4993385;28;20394;-47
2023/12/16 05:15:41;;;;;;;;;;;;;;;;;;4993634;28;19910;-46
2023/12/16 05:18:07;;;;;;;;;;;;;;;;;;4993590;28;19917;-46
2023/12/16 05:20:33;;;;;;;;;;;;;;;;;;4993510;28;19937;-47
2023/12/16 05:22:59;;;;;;;;;;;;;;;;;;4993112;28;20033;-46
2023/12/16 05:25:25;;;;;;;;;;;;;;;;;;4976026;28;20446;-45
2023/12/16 05:27:52;;;;;;;;;;;;;;;;;;4993545;28;19917;-45
2023/12/16 05:30:18;;;;;;;;;;;;;;;;;;4993514;28;19910;-46
2023/12/16 05:32:44;;;;;;;;;;;;;;;;;;4992857;28;19922;-47
2023/12/16 05:35:10;;;;;;;;;;;;;;;;;;4993320;28;19914;-47
2023/12/16 05:37:36;;;;;;;;;;;;;;;;;;4993192;28;20000;-46
2023/12/16 05:40:03;;;;;;;;;;;;;;;;;;4993129;28;19910;-46
2023/12/16 05:42:29;;;;;;;;;;;;;;;;;;4992793;28;20022;-46
2023/12/16 05:44:55;;;;;;;;;;;;;;;;;;4993118;28;19954;-45
2023/12/16 05:47:21;;;;;;;;;;;;;;;;;;4991816;28;19914;-45
2023/12/16 05:49:47;;;;;;;;;;;;;;;;;;4993043;28;19910;-45
2023/12/16 05:52:14;;;;;;;;;;;;;;;;;;4992672;28;19914;-46
2023/12/16 05:54:40;;;;;;;;;;;;;;;;;;4975479;28;19917;-45
2023/12/16 05:57:06;;;;;;;;;;;;;;;;;;4992298;28;19921;-46
2023/12/16 05:59:34;;;;;;;;;;;;;;;;;;4993065;28;19910;-47
2023/12/16 06:02:00;;;;;;;;;;;;;;;;;;4992809;28;20017;-46
2023/12/16 06:04:26;;;;;;;;;;;;;;;;;;4992660;28;19937;-48
2023/12/16 06:06:52;;;;;;;;;;;;;;;;;;4992685;28;19921;-46
2023/12/16 06:09:18;;;;;;;;;;;;;;;;;;4992705;28;19910;-47
2023/12/16 06:11:44;;;;;;;;;;;;;;;;;;4975352;28;19914;-47
2023/12/16 06:14:10;;;;;;;;;;;;;;;;;;4991669;28;20290;-47
2023/12/16 06:16:36;;;;;;;;;;;;;;;;;;4992738;28;19918;-45
2023/12/16 06:19:02;;;;;;;;;;;;;;;;;;4992691;28;19956;-45
2023/12/16 06:21:29;;;;;;;;;;;;;;;;;;4992550;28;20346;-46
2023/12/16 06:23:57;;;;;;;;;;;;;;;;;;4992231;28;19921;-47
2023/12/16 06:26:24;;;;;;;;;;;;;;;;;;4992652;28;19960;-47
2023/12/16 06:28:50;;;;;;;;;;;;;;;;;;4992750;28;19910;-47
2023/12/16 06:31:16;;;;;;;;;;;;;;;;;;4992583;28;20342;-46
2023/12/16 06:33:42;;;;;;;;;;;;;;;;;;4992275;28;19918;-46
2023/12/16 06:36:08;;;;;;;;;;;;;;;;;;4992393;28;19914;-45
2023/12/16 06:38:34;;;;;;;;;;;;;;;;;;4975106;28;19940;-46
2023/12/16 06:41:00;;;;;;;;;;;;;;;;;;4992653;28;20309;-47
2023/12/16 06:43:26;;;;;;;;;;;;;;;;;;4991742;28;19918;-47
2023/12/16 06:45:54;;;;;;;;;;;;;;;;;;4992523;28;20298;-47
2023/12/16 06:48:20;;;;;;;;;;;;;;;;;;4991909;28;20381;-46
2023/12/16 06:50:46;;;;;;;;;;;;;;;;;;4991899;28;19917;-45
2023/12/16 06:53:12;;;;;;;;;;;;;;;;;;4992033;28;19917;-47
2023/12/16 06:55:38;;;;;;;;;;;;;;;;;;4992370;28;20394;-45
2023/12/16 06:58:04;;;;;;;;;;;;;;;;;;4974878;28;19910;-45
2023/12/16 07:00:30;;;;;;;;;;;;;;;;;;4992391;28;19917;-46
2023/12/16 07:02:56;;;;;;;;;;;;;;;;;;4992044;28;20417;-46
2023/12/16 07:05:22;;;;;;;;;;;;;;;;;;4992227;28;20012;-46
2023/12/16 07:07:48;;;;;;;;;;;;;;;;;;4975042;28;20267;-47
2023/12/16 07:10:14;;;;;;;;;;;;;;;;;;4995756;28;19960;-46
2023/12/16 07:12:40;;;;;;;;;;;;;;;;;;4995713;28;20001;-47
2023/12/16 07:15:06;;;;;;;;;;;;;;;;;;4995763;28;19924;-48
2023/12/16 07:17:32;;;;;;;;;;;;;;;;;;4995772;28;19909;-46
2023/12/16 07:19:58;;;;;;;;;;;;;;;;;;4996088;28;20373;-47
2023/12/16 07:22:24;;;;;;;;;;;;;;;;;;4977884;28;20401;-47
2023/12/16 07:24:51;;;;;;;;;;;;;;;;;;4995701;28;20201;-47
2023/12/16 07:27:17;;;;;;;;;;;;;;;;;;4995704;28;20382;-48
2023/12/16 07:29:43;;;;;;;;;;;;;;;;;;4995608;28;19914;-47
2023/12/16 07:32:09;;;;;;;;;;;;;;;;;;4977766;28;19918;-47
2023/12/16 07:34:35;;;;;;;;;;;;;;;;;;4995222;28;20338;-47
2023/12/16 07:37:01;;;;;;;;;;;;;;;;;;4995594;28;20341;-45
2023/12/16 07:39:27;;;;;;;;;;;;;;;;;;4995250;28;19914;-46
2023/12/16 07:41:53;;;;;;;;;;;;;;;;;;4995291;28;20048;-46
2023/12/16 07:44:19;;;;;;;;;;;;;;;;;;4977708;28;19914;-46
2023/12/16 07:46:45;;;;;;;;;;;;;;;;;;4995219;28;19917;-47
2023/12/16 07:49:12;;;;;;;;;;;;;;;;;;4977713;28;19921;-46
2023/12/16 07:51:38;;;;;;;;;;;;;;;;;;4977569;28;19913;-47
2023/12/16 07:54:04;;;;;;;;;;;;;;;;;;4994924;28;20379;-46
2023/12/16 07:56:30;;;;;;;;;;;;;;;;;;4995087;28;19918;-46
2023/12/16 07:58:57;;;;;;;;;;;;;;;;;;4993986;28;19965;-46
2023/12/16 08:01:23;;;;;;;;;;;;;;;;;;4994879;28;20355;-45
2023/12/16 08:03:49;;;;;;;;;;;;;;;;;;4977485;28;19918;-46
2023/12/16 08:06:16;;;;;;;;;;;;;;;;;;4977505;28;19909;-46
2023/12/16 08:08:42;;;;;;;;;;;;;;;;;;4977225;28;19921;-46
2023/12/16 08:11:08;;;;;;;;;;;;;;;;;;4994914;28;19910;-45
2023/12/16 08:13:34;;;;;;;;;;;;;;;;;;4994558;28;19914;-45
2023/12/16 08:16:00;;;;;;;;;;;;;;;;;;4977344;28;19917;-47
2023/12/16 08:18:26;;;;;;;;;;;;;;;;;;4994665;28;19921;-47
2023/12/16 08:20:52;;;;;;;;;;;;;;;;;;4993930;28;20014;-46
2023/12/16 08:23:19;;;;;;;;;;;;;;;;;;4976823;28;19918;-46
2023/12/16 08:25:45;;;;;;;;;;;;;;;;;;4977006;28;19910;-45
2023/12/16 08:28:12;;;;;;;;;;;;;;;;;;4994418;28;19921;-46
2023/12/16 08:30:38;;;;;;;;;;;;;;;;;;4994376;28;20377;-46
2023/12/16 08:33:04;;;;;;;;;;;;;;;;;;4993981;28;19918;-47
2023/12/16 08:35:30;;;;;;;;;;;;;;;;;;4994409;28;19910;-46
2023/12/16 08:37:56;;;;;;;;;;;;;;;;;;4994628;28;19917;-46
2023/12/16 08:40:22;;;;;;;;;;;;;;;;;;4994240;28;19953;-45
2023/12/16 08:42:48;;;;;;;;;;;;;;;;;;4993788;28;19922;-45
2023/12/16 08:45:14;;;;;;;;;;;;;;;;;;4994113;28;19917;-46
2023/12/16 08:47:41;;;;;;;;;;;;;;;;;;4993814;28;19914;-47
2023/12/16 08:50:07;;;;;;;;;;;;;;;;;;4976683;28;19972;-45
2023/12/16 08:52:33;;;;;;;;;;;;;;;;;;4993911;28;20000;-47
2023/12/16 08:54:59;;;;;;;;;;;;;;;;;;4993883;28;20282;-49
2023/12/16 08:57:25;;;;;;;;;;;;;;;;;;4993949;28;19913;-47
2023/12/16 08:59:51;;;;;;;;;;;;;;;;;;4993732;28;19910;-46
2023/12/16 09:02:17;;;;;;;;;;;;;;;;;;4992048;28;19922;-45
2023/12/16 09:04:43;;;;;;;;;;;;;;;;;;4993005;28;19910;-47
2023/12/16 09:07:09;;;;;;;;;;;;;;;;;;4959822;28;19973;-47
2023/12/16 09:09:35;;;;;;;;;;;;;;;;;;4993802;28;19910;-46
2023/12/16 09:12:01;;;;;;;;;;;;;;;;;;4993624;28;19914;-46
2023/12/16 09:14:27;;;;;;;;;;;;;;;;;;4993210;28;19910;-45
2023/12/16 09:16:53;;;;;;;;;;;;;;;;;;4976036;28;19914;-46
2023/12/16 09:19:19;;;;;;;;;;;;;;;;;;4959806;28;19910;-46
2023/12/16 09:21:45;;;;;;;;;;;;;;;;;;4976034;28;20304;-47
2023/12/16 09:24:11;;;;;;;;;;;;;;;;;;4993204;28;20399;-45
2023/12/16 09:26:38;;;;;;;;;;;;;;;;;;4993429;28;19914;-46
2023/12/16 09:29:04;;;;;;;;;;;;;;;;;;4993260;28;20385;-46
2023/12/16 09:31:31;;;;;;;;;;;;;;;;;;4992569;28;19914;-46
2023/12/16 09:33:57;;;;;;;;;;;;;;;;;;4992809;28;20173;-46
2023/12/16 09:36:26;;;;;;;;;;;;;;;;;;4993267;28;19960;-46
2023/12/16 09:38:53;;;;;;;;;;;;;;;;;;4993124;28;19910;-45
2023/12/16 09:41:19;;;;;;;;;;;;;;;;;;4992738;28;19917;-46
2023/12/16 09:43:45;;;;;;;;;;;;;;;;;;4992329;28;20013;-46
2023/12/16 09:46:11;;;;;;;;;;;;;;;;;;4959485;28;19980;-47
2023/12/16 09:48:37;;;;;;;;;;;;;;;;;;4992953;28;20314;-47
2023/12/16 09:51:04;;;;;;;;;;;;;;;;;;4993142;28;20342;-47
2023/12/16 09:53:30;;;;;;;;;;;;;;;;;;4975430;28;20345;-46
2023/12/16 09:55:56;;;;;;;;;;;;;;;;;;4992807;28;19940;-45
2023/12/16 09:58:22;;;;;;;;;;;;;;;;;;4992865;28;20370;-46
2023/12/16 10:00:48;;;;;;;;;;;;;;;;;;4992898;28;19914;-47
2023/12/16 10:03:14;;;;;;;;;;;;;;;;;;4975031;28;20510;-46
2023/12/16 10:05:40;;;;;;;;;;;;;;;;;;4992866;28;19913;-46
2023/12/16 10:08:06;;;;;;;;;;;;;;;;;;4992812;28;19922;-45
2023/12/16 10:10:32;;;;;;;;;;;;;;;;;;4992657;28;19914;-46
2023/12/16 10:12:58;;;;;;;;;;;;;;;;;;4974747;28;19953;-46
2023/12/16 10:15:24;;;;;;;;;;;;;;;;;;4975270;28;20009;-47
2023/12/16 10:17:50;;;;;;;;;;;;;;;;;;4992669;28;19953;-48
2023/12/16 10:20:16;;;;;;;;;;;;;;;;;;4992618;28;20453;-46
2023/12/16 10:22:42;;;;;;;;;;;;;;;;;;4992426;28;19968;-46
2023/12/16 10:25:08;;;;;;;;;;;;;;;;;;4975224;28;20013;-46
2023/12/16 10:27:35;;;;;;;;;;;;;;;;;;4959029;28;19917;-47
2023/12/16 10:30:01;;;;;;;;;;;;;;;;;;4992642;28;20326;-46
2023/12/16 10:32:27;;;;;;;;;;;;;;;;;;4992805;28;20349;-45
2023/12/16 10:34:53;;;;;;;;;;;;;;;;;;4992628;28;20382;-46
2023/12/16 10:37:19;;;;;;;;;;;;;;;;;;4992632;28;20022;-45
2023/12/16 10:39:45;;;;;;;;;;;;;;;;;;4992119;28;19913;-46
2023/12/16 10:42:11;;;;;;;;;;;;;;;;;;4992126;28;19924;-47
2023/12/16 10:44:38;;;;;;;;;;;;;;;;;;4995213;28;20357;-47
2023/12/16 10:47:04;;;;;;;;;;;;;;;;;;4996469;28;20386;-46
2023/12/16 10:49:30;;;;;;;;;;;;;;;;;;4978891;28;19936;-48
2023/12/16 10:51:56;;;;;;;;;;;;;;;;;;4978867;28;19914;-47
2023/12/16 10:54:22;;;;;;;;;;;;;;;;;;4978556;28;20013;-47
2023/12/16 10:56:48;;;;;;;;;;;;;;;;;;4978872;28;19960;-46
2023/12/16 10:59:14;;;;;;;;;;;;;;;;;;4995787;28;20374;-47
2023/12/16 11:01:40;;;;;;;;;;;;;;;;;;4978034;28;20390;-47
2023/12/16 11:04:06;;;;;;;;;;;;;;;;;;4994249;28;19980;-46
2023/12/16 11:06:32;;;;;;;;;;;;;;;;;;4995426;28;19910;-46
2023/12/16 11:08:58;;;;;;;;;;;;;;;;;;4995907;28;19920;-46
2023/12/16 11:11:24;;;;;;;;;;;;;;;;;;4978356;28;20025;-46
2023/12/16 11:13:52;;;;;;;;;;;;;;;;;;4978403;28;19929;-46
2023/12/16 11:16:18;;;;;;;;;;;;;;;;;;4995890;28;19910;-46
2023/12/16 11:18:44;;;;;;;;;;;;;;;;;;4978429;28;19988;-46
2023/12/16 11:21:13;;;;;;;;;;;;;;;;;;4978273;28;20264;-46
2023/12/16 11:23:39;;;;;;;;;;;;;;;;;;4995388;28;19922;-45
2023/12/16 11:26:05;;;;;;;;;;;;;;;;;;4995689;28;20338;-46
2023/12/16 11:28:31;;;;;;;;;;;;;;;;;;4995678;28;20286;-47
2023/12/16 11:30:57;;;;;;;;;;;;;;;;;;4978221;28;19910;-46
2023/12/16 11:33:23;;;;;;;;;;;;;;;;;;4995224;28;20375;-45
2023/12/16 11:35:50;;;;;;;;;;;;;;;;;;4995529;28;19942;-46
2023/12/16 11:38:16;;;;;;;;;;;;;;;;;;4995401;28;19924;-47
2023/12/16 11:40:42;;;;;;;;;;;;;;;;;;4995956;28;20351;-46
2023/12/16 11:43:08;;;;;;;;;;;;;;;;;;4995066;28;19918;-47
2023/12/16 11:45:36;;;;;;;;;;;;;;;;;;4995352;28;19916;-46
2023/12/16 11:48:02;;;;;;;;;;;;;;;;;;4995313;28;19914;-46
2023/12/16 11:50:28;;;;;;;;;;;;;;;;;;4995207;28;20338;-46
2023/12/16 11:52:54;;;;;;;;;;;;;;;;;;4977541;28;19914;-47
2023/12/16 11:55:20;;;;;;;;;;;;;;;;;;4994137;28;19910;-46
2023/12/16 11:57:46;;;;;;;;;;;;;;;;;;4999194;28;19944;-46
2023/12/16 12:00:13;;;;;;;;;;;;;;;;;;5003450;28;19920;-46
2023/12/16 12:02:39;;;;;;;;;;;;;;;;;;4993159;28;19918;-48
2023/12/16 12:05:11;;;;;;;;;;;;;;;;;;5003191;28;19936;-47
2023/12/16 12:07:37;;;;;;;;;;;;;;;;;;4992729;28;19920;-46
2023/12/16 12:10:03;;;;;;;;;;;;;;;;;;5013549;28;20000;-47
2023/12/16 12:12:29;;;;;;;;;;;;;;;;;;4990325;28;19917;-48
2023/12/16 12:14:55;;;;;;;;;;;;;;;;;;4989981;28;19921;-46
2023/12/16 12:17:21;;;;;;;;;;;;;;;;;;4992832;28;19918;-47
2023/12/16 12:19:47;;;;;;;;;;;;;;;;;;4992909;28;19914;-51
2023/12/16 12:22:14;;;;;;;;;;;;;;;;;;4992433;28;19961;-48
2023/12/16 12:24:40;;;;;;;;;;;;;;;;;;4980811;28;20338;-48
2023/12/16 12:27:06;;;;;;;;;;;;;;;;;;4991592;28;19980;-47
2023/12/16 12:29:32;;;;;;;;;;;;;;;;;;4994278;28;20322;-49
2023/12/16 12:32:03;;;;;;;;;;;;;;;;;;5004270;28;20017;-47
2023/12/16 12:34:29;;;;;;;;;;;;;;;;;;4982635;28;20406;-47
2023/12/16 12:36:55;;;;;;;;;;;;;;;;;;4994745;28;20021;-47
2023/12/16 12:39:22;;;;;;;;;;;;;;;;;;4982921;28;19918;-47
2023/12/16 12:45:02;;;;;;;;;;;;;;;;;;4976106;28;20048;-47
2023/12/16 12:47:28;;;;;;;;;;;;;;;;;;4994322;28;19913;-48
2023/12/16 12:49:55;;;;;;;;;;;;;;;;;;5011711;28;20286;-47
2023/12/16 12:52:22;;;;;;;;;;;;;;;;;;5003627;28;19924;-48
2023/12/16 12:54:48;;;;;;;;;;;;;;;;;;5010103;28;19918;-48
2023/12/16 12:57:14;;;;;;;;;;;;;;;;;;4994383;28;19917;-47
2023/12/16 12:59:40;;;;;;;;;;;;;;;;;;4992324;28;19921;-46
2023/12/16 13:02:06;;;;;;;;;;;;;;;;;;4980991;28;19980;-47
2023/12/16 13:04:32;;;;;;;;;;;;;;;;;;4994032;28;19913;-47
2023/12/16 13:06:58;;;;;;;;;;;;;;;;;;4991020;28;19993;-48
2023/12/16 13:09:24;;;;;;;;;;;;;;;;;;4974358;28;19909;-48
2023/12/16 13:11:50;;;;;;;;;;;;;;;;;;4975129;28;19941;-48
2023/12/16 13:14:16;;;;;;;;;;;;;;;;;;4977929;28;19929;-49
2023/12/16 13:16:43;;;;;;;;;;;;;;;;;;4987617;28;19940;-47
2023/12/16 13:19:09;;;;;;;;;;;;;;;;;;5009963;28;20000;-48
2023/12/16 13:21:36;;;;;;;;;;;;;;;;;;4992228;28;20457;-47
2023/12/16 13:24:02;;;;;;;;;;;;;;;;;;5011131;28;19936;-48
2023/12/16 13:26:28;;;;;;;;;;;;;;;;;;4999905;28;20310;-47
2023/12/16 13:28:54;;;;;;;;;;;;;;;;;;4974700;28;19920;-47
2023/12/16 13:31:20;;;;;;;;;;;;;;;;;;4993105;28;20013;-48
2023/12/16 13:33:46;;;;;;;;;;;;;;;;;;4974328;28;19932;-48
2023/12/16 13:36:13;;;;;;;;;;;;;;;;;;4974026;28;19952;-47
2023/12/16 13:38:39;;;;;;;;;;;;;;;;;;4991451;28;20390;-48
2023/12/16 13:41:05;;;;;;;;;;;;;;;;;;4992715;28;19928;-48
2023/12/16 13:43:31;;;;;;;;;;;;;;;;;;5002521;28;20382;-48
2023/12/16 13:45:57;;;;;;;;;;;;;;;;;;5003652;28;19918;-47
2023/12/16 13:48:23;;;;;;;;;;;;;;;;;;4991463;28;19918;-47
2023/12/16 13:50:49;;;;;;;;;;;;;;;;;;5001868;28;19913;-47
2023/12/16 13:53:15;;;;;;;;;;;;;;;;;;4963482;28;20009;-48
2023/12/16 13:55:41;;;;;;;;;;;;;;;;;;5001600;28;19918;-47
2023/12/16 13:58:08;;;;;;;;;;;;;;;;;;4973990;28;19921;-47
2023/12/16 14:00:34;;;;;;;;;;;;;;;;;;5000170;28;20378;-47
2023/12/16 14:03:00;;;;;;;;;;;;;;;;;;5011313;28;19920;-48
2023/12/16 14:05:27;;;;;;;;;;;;;;;;;;5005299;28;20392;-48
2023/12/16 14:07:53;;;;;;;;;;;;;;;;;;5003795;28;19936;-46
2023/12/16 14:10:19;;;;;;;;;;;;;;;;;;5008183;28;19921;-47
2023/12/16 14:12:45;;;;;;;;;;;;;;;;;;5012513;28;19909;-47
2023/12/16 14:15:11;;;;;;;;;;;;;;;;;;5012147;28;20290;-47
2023/12/16 14:17:37;;;;;;;;;;;;;;;;;;5012355;28;19913;-48
2023/12/16 14:20:03;;;;;;;;;;;;;;;;;;5011957;28;19913;-47
2023/12/16 14:22:29;;;;;;;;;;;;;;;;;;4994543;28;19984;-47
2023/12/16 14:24:55;;;;;;;;;;;;;;;;;;5007959;28;19914;-46
2023/12/16 14:27:22;;;;;;;;;;;;;;;;;;4992374;28;19916;-47
2023/12/16 14:29:48;;;;;;;;;;;;;;;;;;4992630;28;19913;-46
2023/12/16 14:32:14;;;;;;;;;;;;;;;;;;4992291;28;19922;-48
2023/12/16 14:34:40;;;;;;;;;;;;;;;;;;4992398;28;19920;-46
2023/12/16 14:37:06;;;;;;;;;;;;;;;;;;4992601;28;19917;-47
2023/12/16 14:39:32;;;;;;;;;;;;;;;;;;4992583;28;19914;-46
2023/12/16 14:41:59;;;;;;;;;;;;;;;;;;4992454;28;19909;-46
2023/12/16 14:44:25;;;;;;;;;;;;;;;;;;4992172;28;19917;-45
2023/12/16 14:46:53;;;;;;;;;;;;;;;;;;4975062;28;19996;-45
2023/12/16 14:49:20;;;;;;;;;;;;;;;;;;4992300;28;19914;-45
2023/12/16 14:51:46;;;;;;;;;;;;;;;;;;4992413;28;20405;-45
2023/12/16 14:54:12;;;;;;;;;;;;;;;;;;4992545;28;19913;-45
2023/12/16 14:56:38;;;;;;;;;;;;;;;;;;4992187;28;19910;-46
2023/12/16 14:59:04;;;;;;;;;;;;;;;;;;4992220;28;20334;-45
2023/12/16 15:01:30;;;;;;;;;;;;;;;;;;4993308;28;20295;-43
2023/12/16 15:03:56;;;;;;;;;;;;;;;;;;5010117;28;19921;-46
2023/12/16 15:06:22;;;;;;;;;;;;;;;;;;4992388;28;19918;-45
2023/12/16 15:08:49;;;;;;;;;;;;;;;;;;4994214;28;20414;-47
2023/12/16 15:11:15;;;;;;;;;;;;;;;;;;5011477;28;20314;-46
2023/12/16 15:13:41;;;;;;;;;;;;;;;;;;5009647;28;20469;-46
2023/12/16 15:16:07;;;;;;;;;;;;;;;;;;5000524;28;19917;-46
2023/12/16 15:18:33;;;;;;;;;;;;;;;;;;5000315;28;19918;-46
2023/12/16 15:20:59;;;;;;;;;;;;;;;;;;4992272;28;20352;-46
2023/12/16 15:23:25;;;;;;;;;;;;;;;;;;5010199;28;19921;-46
2023/12/16 15:25:51;;;;;;;;;;;;;;;;;;5010111;28;20005;-46
2023/12/16 15:28:17;;;;;;;;;;;;;;;;;;5011343;28;20352;-47
2023/12/16 15:30:43;;;;;;;;;;;;;;;;;;5007299;28;20482;-46
2023/12/16 15:33:09;;;;;;;;;;;;;;;;;;4997050;28;19917;-46
2023/12/16 15:35:35;;;;;;;;;;;;;;;;;;4983841;28;19975;-47
2023/12/16 15:38:02;;;;;;;;;;;;;;;;;;4989547;28;19914;-47
2023/12/16 15:40:28;;;;;;;;;;;;;;;;;;4975891;28;19911;-46
2023/12/16 15:42:54;;;;;;;;;;;;;;;;;;4999235;28;20353;-46
2023/12/16 15:45:20;;;;;;;;;;;;;;;;;;4997210;28;20370;-46
2023/12/16 15:47:46;;;;;;;;;;;;;;;;;;4997247;28;19917;-46
2023/12/16 15:50:12;;;;;;;;;;;;;;;;;;5015054;28;19914;-46
2023/12/16 15:52:40;;;;;;;;;;;;;;;;;;4997174;28;20016;-46
2023/12/16 15:55:06;;;;;;;;;;;;;;;;;;5002756;28;20256;-45
2023/12/16 15:57:32;;;;;;;;;;;;;;;;;;4993850;28;19914;-46
2023/12/16 15:59:58;;;;;;;;;;;;;;;;;;4973210;28;20018;-46
2023/12/16 16:02:24;;;;;;;;;;;;;;;;;;4982668;28;19961;-46
2023/12/16 16:04:50;;;;;;;;;;;;;;;;;;4998624;28;20387;-46
2023/12/16 16:07:16;;;;;;;;;;;;;;;;;;5012653;28;20008;-46
2023/12/16 16:09:42;;;;;;;;;;;;;;;;;;4992087;28;19910;-45
2023/12/16 16:12:08;;;;;;;;;;;;;;;;;;4993443;28;19937;-46
2023/12/16 16:14:34;;;;;;;;;;;;;;;;;;4990627;28;20005;-47
2023/12/16 16:17:00;;;;;;;;;;;;;;;;;;4992403;28;19953;-46
2023/12/16 16:19:26;;;;;;;;;;;;;;;;;;5000623;28;19918;-46
2023/12/16 16:21:53;;;;;;;;;;;;;;;;;;4995544;28;19972;-46
2023/12/16 16:24:19;;;;;;;;;;;;;;;;;;5006040;28;19921;-47
2023/12/16 16:26:45;;;;;;;;;;;;;;;;;;5010283;28;19917;-46
2023/12/16 16:29:11;;;;;;;;;;;;;;;;;;5003003;28;19928;-46
2023/12/16 16:31:38;;;;;;;;;;;;;;;;;;5001927;28;19921;-49
2023/12/16 16:34:04;;;;;;;;;;;;;;;;;;5041422;22;20188;-47
2023/12/16 16:36:33;;;;;;;;;;;;;;;;;;5034048;28;20210;-48
2023/12/16 16:38:59;;;;;;;;;;;;;;;;;;5015401;28;19914;-48
2023/12/16 16:41:25;;;;;;;;;;;;;;;;;;5013925;28;20357;-47